sensor_id;sensor_type;location;lat;lon;timestamp;pressure;altitude;pressure_sealevel;temperature;humidity
68506;BME280;55509;50.680;17.942;2023-01-28T00:02:27;100272.06;;;-0.25;88.25
68506;BME280;55509;50.680;17.942;2023-01-28T00:05:29;100272.31;;;-0.22;88.66
68506;BME280;55509;50.680;17.942;2023-01-28T00:08:31;100273.98;;;-0.18;88.38
68506;BME280;55509;50.680;17.942;2023-01-28T00:11:34;100276.52;;;-0.12;88.56
68506;BME280;55509;50.680;17.942;2023-01-28T00:14:35;100272.84;;;-0.08;88.39
68506;BME280;55509;50.680;17.942;2023-01-28T00:17:37;100274.40;;;-0.07;88.20
68506;BME280;55509;50.680;17.942;2023-01-28T00:20:38;100275.61;;;-0.07;88.23
68506;BME280;55509;50.680;17.942;2023-01-28T00:23:40;100277.66;;;-0.09;88.27
68506;BME280;55509;50.680;17.942;2023-01-28T00:26:43;100276.52;;;-0.12;88.38
68506;BME280;55509;50.680;17.942;2023-01-28T00:29:44;100271.29;;;-0.15;88.61
68506;BME280;55509;50.680;17.942;2023-01-28T00:32:46;100275.09;;;-0.15;88.57
68506;BME280;55509;50.680;17.942;2023-01-28T00:35:55;100278.58;;;-0.13;88.17
68506;BME280;55509;50.680;17.942;2023-01-28T00:38:57;100278.44;;;-0.12;88.03
68506;BME280;55509;50.680;17.942;2023-01-28T00:41:59;100282.26;;;-0.11;88.09
68506;BME280;55509;50.680;17.942;2023-01-28T00:45:01;100279.83;;;-0.11;88.10
68506;BME280;55509;50.680;17.942;2023-01-28T00:48:02;100281.16;;;-0.14;88.47
68506;BME280;55509;50.680;17.942;2023-01-28T00:51:05;100274.56;;;-0.15;88.21
68506;BME280;55509;50.680;17.942;2023-01-28T00:54:07;100277.04;;;-0.13;88.26
68506;BME280;55509;50.680;17.942;2023-01-28T00:57:08;100276.47;;;-0.08;88.09
68506;BME280;55509;50.680;17.942;2023-01-28T01:00:10;100281.91;;;-0.04;88.11
68506;BME280;55509;50.680;17.942;2023-01-28T01:03:12;100282.52;;;-0.01;88.12
68506;BME280;55509;50.680;17.942;2023-01-28T01:06:14;100286.69;;;0.00;88.08
68506;BME280;55509;50.680;17.942;2023-01-28T01:09:16;100289.26;;;-0.01;87.99
68506;BME280;55509;50.680;17.942;2023-01-28T01:12:17;100286.42;;;-0.04;88.11
68506;BME280;55509;50.680;17.942;2023-01-28T01:15:19;100287.27;;;-0.05;88.28
68506;BME280;55509;50.680;17.942;2023-01-28T01:18:21;100291.63;;;-0.04;88.22
68506;BME280;55509;50.680;17.942;2023-01-28T01:21:23;100291.80;;;-0.03;88.02
68506;BME280;55509;50.680;17.942;2023-01-28T01:24:25;100290.79;;;-0.02;87.85
68506;BME280;55509;50.680;17.942;2023-01-28T01:27:30;100290.44;;;-0.02;88.17
68506;BME280;55509;50.680;17.942;2023-01-28T01:30:31;100288.30;;;-0.05;88.00
68506;BME280;55509;50.680;17.942;2023-01-28T01:33:33;100286.85;;;-0.07;88.04
68506;BME280;55509;50.680;17.942;2023-01-28T01:36:35;100290.91;;;-0.11;88.16
68506;BME280;55509;50.680;17.942;2023-01-28T01:39:36;100291.36;;;-0.14;88.09
68506;BME280;55509;50.680;17.942;2023-01-28T01:42:38;100295.95;;;-0.17;88.11
68506;BME280;55509;50.680;17.942;2023-01-28T01:45:39;100294.02;;;-0.18;88.24
68506;BME280;55509;50.680;17.942;2023-01-28T01:48:41;100294.27;;;-0.16;88.29
68506;BME280;55509;50.680;17.942;2023-01-28T01:51:43;100293.33;;;-0.11;88.18
68506;BME280;55509;50.680;17.942;2023-01-28T01:54:47;100292.52;;;-0.08;87.98
68506;BME280;55509;50.680;17.942;2023-01-28T01:57:52;100292.73;;;-0.07;87.98
68506;BME280;55509;50.680;17.942;2023-01-28T02:00:54;100295.13;;;-0.08;87.95
68506;BME280;55509;50.680;17.942;2023-01-28T02:03:58;100301.13;;;-0.10;87.95
68506;BME280;55509;50.680;17.942;2023-01-28T02:07:01;100307.66;;;-0.12;88.16
68506;BME280;55509;50.680;17.942;2023-01-28T02:10:03;100310.70;;;-0.15;88.23
68506;BME280;55509;50.680;17.942;2023-01-28T02:13:05;100313.47;;;-0.15;88.23
68506;BME280;55509;50.680;17.942;2023-01-28T02:16:07;100314.22;;;-0.12;87.97
68506;BME280;55509;50.680;17.942;2023-01-28T02:19:09;100316.88;;;-0.10;88.53
68506;BME280;55509;50.680;17.942;2023-01-28T02:37:33;100317.88;;;-0.18;88.26
68506;BME280;55509;50.680;17.942;2023-01-28T02:40:38;100316.77;;;-0.21;88.23
68506;BME280;55509;50.680;17.942;2023-01-28T02:44:01;100315.77;;;-0.20;87.94
68506;BME280;55509;50.680;17.942;2023-01-28T02:47:08;100320.54;;;-0.16;88.08
68506;BME280;55509;50.680;17.942;2023-01-28T02:50:30;100322.05;;;-0.10;88.38
68506;BME280;55509;50.680;17.942;2023-01-28T02:53:56;100323.67;;;-0.08;88.05
68506;BME280;55509;50.680;17.942;2023-01-28T02:57:05;100322.86;;;-0.06;87.92
68506;BME280;55509;50.680;17.942;2023-01-28T03:00:11;100320.38;;;-0.08;87.81
68506;BME280;55509;50.680;17.942;2023-01-28T03:06:25;100326.16;;;-0.11;87.81
68506;BME280;55509;50.680;17.942;2023-01-28T03:09:29;100329.16;;;-0.09;87.70
68506;BME280;55509;50.680;17.942;2023-01-28T03:12:31;100331.10;;;-0.08;87.43
68506;BME280;55509;50.680;17.942;2023-01-28T03:15:53;100329.70;;;-0.09;87.65
68506;BME280;55509;50.680;17.942;2023-01-28T03:19:13;100329.11;;;-0.11;87.62
68506;BME280;55509;50.680;17.942;2023-01-28T03:22:33;100330.80;;;-0.13;87.37
68506;BME280;55509;50.680;17.942;2023-01-28T03:25:55;100332.65;;;-0.15;87.51
68506;BME280;55509;50.680;17.942;2023-01-28T03:29:18;100325.87;;;-0.16;87.17
68506;BME280;55509;50.680;17.942;2023-01-28T03:32:39;100325.89;;;-0.16;87.38
68506;BME280;55509;50.680;17.942;2023-01-28T03:36:01;100328.56;;;-0.13;87.53
68506;BME280;55509;50.680;17.942;2023-01-28T03:39:23;100328.77;;;-0.11;87.28
68506;BME280;55509;50.680;17.942;2023-01-28T03:42:25;100325.77;;;-0.13;87.07
68506;BME280;55509;50.680;17.942;2023-01-28T03:45:26;100326.27;;;-0.15;87.29
68506;BME280;55509;50.680;17.942;2023-01-28T03:48:28;100325.19;;;-0.16;87.44
68506;BME280;55509;50.680;17.942;2023-01-28T03:51:30;100328.90;;;-0.20;87.34
68506;BME280;55509;50.680;17.942;2023-01-28T03:54:31;100325.38;;;-0.22;87.10
68506;BME280;55509;50.680;17.942;2023-01-28T03:57:33;100326.41;;;-0.22;87.21
68506;BME280;55509;50.680;17.942;2023-01-28T04:00:34;100329.26;;;-0.19;87.35
68506;BME280;55509;50.680;17.942;2023-01-28T04:03:42;100329.53;;;-0.16;87.06
68506;BME280;55509;50.680;17.942;2023-01-28T04:06:43;100331.52;;;-0.12;87.34
68506;BME280;55509;50.680;17.942;2023-01-28T04:09:45;100336.59;;;-0.09;87.03
68506;BME280;55509;50.680;17.942;2023-01-28T04:12:46;100336.56;;;-0.10;86.93
68506;BME280;55509;50.680;17.942;2023-01-28T04:15:50;100338.06;;;-0.13;86.66
68506;BME280;55509;50.680;17.942;2023-01-28T04:18:51;100341.46;;;-0.15;87.12
68506;BME280;55509;50.680;17.942;2023-01-28T04:21:53;100344.34;;;-0.18;87.09
68506;BME280;55509;50.680;17.942;2023-01-28T04:24:55;100343.74;;;-0.21;87.06
68506;BME280;55509;50.680;17.942;2023-01-28T04:27:56;100341.59;;;-0.24;86.95
68506;BME280;55509;50.680;17.942;2023-01-28T04:30:58;100344.79;;;-0.27;86.94
68506;BME280;55509;50.680;17.942;2023-01-28T04:33:59;100343.52;;;-0.30;87.01
68506;BME280;55509;50.680;17.942;2023-01-28T04:37:01;100344.96;;;-0.33;87.20
68506;BME280;55509;50.680;17.942;2023-01-28T04:40:02;100343.38;;;-0.35;87.17
68506;BME280;55509;50.680;17.942;2023-01-28T04:43:04;100343.23;;;-0.33;87.18
68506;BME280;55509;50.680;17.942;2023-01-28T04:46:06;100346.14;;;-0.28;87.35
68506;BME280;55509;50.680;17.942;2023-01-28T04:49:07;100345.23;;;-0.23;87.21
68506;BME280;55509;50.680;17.942;2023-01-28T04:52:08;100346.04;;;-0.19;87.42
68506;BME280;55509;50.680;17.942;2023-01-28T04:55:10;100349.95;;;-0.15;87.30
68506;BME280;55509;50.680;17.942;2023-01-28T04:58:11;100347.33;;;-0.16;87.36
68506;BME280;55509;50.680;17.942;2023-01-28T05:01:13;100352.30;;;-0.17;87.49
68506;BME280;55509;50.680;17.942;2023-01-28T05:04:14;100352.55;;;-0.21;87.45
68506;BME280;55509;50.680;17.942;2023-01-28T05:07:17;100355.04;;;-0.24;87.55
68506;BME280;55509;50.680;17.942;2023-01-28T05:10:19;100356.77;;;-0.24;87.43
68506;BME280;55509;50.680;17.942;2023-01-28T05:13:20;100362.04;;;-0.22;87.46
68506;BME280;55509;50.680;17.942;2023-01-28T05:16:22;100361.38;;;-0.20;87.69
68506;BME280;55509;50.680;17.942;2023-01-28T05:19:23;100365.36;;;-0.20;87.87
68506;BME280;55509;50.680;17.942;2023-01-28T05:22:25;100366.73;;;-0.21;87.86
68506;BME280;55509;50.680;17.942;2023-01-28T05:25:26;100366.70;;;-0.22;88.13
68506;BME280;55509;50.680;17.942;2023-01-28T05:28:28;100369.57;;;-0.24;88.24
68506;BME280;55509;50.680;17.942;2023-01-28T05:31:29;100373.27;;;-0.28;88.42
68506;BME280;55509;50.680;17.942;2023-01-28T05:34:31;100380.70;;;-0.28;88.53
68506;BME280;55509;50.680;17.942;2023-01-28T05:37:32;100383.19;;;-0.26;88.47
68506;BME280;55509;50.680;17.942;2023-01-28T05:40:34;100384.10;;;-0.23;88.39
68506;BME280;55509;50.680;17.942;2023-01-28T05:43:35;100387.73;;;-0.17;88.66
68506;BME280;55509;50.680;17.942;2023-01-28T05:46:37;100384.02;;;-0.15;88.57
68506;BME280;55509;50.680;17.942;2023-01-28T05:49:38;100385.75;;;-0.14;88.65
68506;BME280;55509;50.680;17.942;2023-01-28T05:52:40;100388.36;;;-0.13;88.61
68506;BME280;55509;50.680;17.942;2023-01-28T05:55:41;100391.31;;;-0.13;89.04
68506;BME280;55509;50.680;17.942;2023-01-28T05:58:43;100390.95;;;-0.14;89.02
68506;BME280;55509;50.680;17.942;2023-01-28T06:01:44;100392.24;;;-0.17;88.89
68506;BME280;55509;50.680;17.942;2023-01-28T06:04:46;100402.52;;;-0.20;89.00
68506;BME280;55509;50.680;17.942;2023-01-28T06:07:47;100399.83;;;-0.24;89.03
68506;BME280;55509;50.680;17.942;2023-01-28T06:10:49;100400.45;;;-0.27;89.06
68506;BME280;55509;50.680;17.942;2023-01-28T06:13:50;100399.69;;;-0.29;89.22
68506;BME280;55509;50.680;17.942;2023-01-28T06:16:52;100401.17;;;-0.32;89.51
68506;BME280;55509;50.680;17.942;2023-01-28T06:19:53;100401.61;;;-0.34;89.21
68506;BME280;55509;50.680;17.942;2023-01-28T06:22:55;100404.14;;;-0.37;89.36
68506;BME280;55509;50.680;17.942;2023-01-28T06:25:56;100407.38;;;-0.39;89.64
68506;BME280;55509;50.680;17.942;2023-01-28T06:28:58;100413.27;;;-0.38;89.41
68506;BME280;55509;50.680;17.942;2023-01-28T06:31:59;100413.87;;;-0.36;89.42
68506;BME280;55509;50.680;17.942;2023-01-28T06:35:01;100417.45;;;-0.31;89.68
68506;BME280;55509;50.680;17.942;2023-01-28T06:38:02;100420.16;;;-0.27;89.49
68506;BME280;55509;50.680;17.942;2023-01-28T06:41:04;100418.05;;;-0.21;89.67
68506;BME280;55509;50.680;17.942;2023-01-28T06:44:06;100417.91;;;-0.14;89.68
68506;BME280;55509;50.680;17.942;2023-01-28T06:47:07;100423.34;;;-0.11;89.45
68506;BME280;55509;50.680;17.942;2023-01-28T06:50:11;100426.30;;;-0.10;89.55
68506;BME280;55509;50.680;17.942;2023-01-28T06:53:12;100429.63;;;-0.09;89.45
68506;BME280;55509;50.680;17.942;2023-01-28T06:56:14;100433.06;;;-0.09;89.57
68506;BME280;55509;50.680;17.942;2023-01-28T06:59:15;100435.97;;;-0.11;89.54
68506;BME280;55509;50.680;17.942;2023-01-28T07:02:17;100436.95;;;-0.13;89.58
68506;BME280;55509;50.680;17.942;2023-01-28T07:05:18;100439.63;;;-0.16;89.38
68506;BME280;55509;50.680;17.942;2023-01-28T07:08:20;100446.02;;;-0.17;89.24
68506;BME280;55509;50.680;17.942;2023-01-28T07:11:21;100448.80;;;-0.16;89.17
68506;BME280;55509;50.680;17.942;2023-01-28T07:14:23;100451.48;;;-0.13;89.23
68506;BME280;55509;50.680;17.942;2023-01-28T07:17:24;100453.61;;;-0.10;89.30
68506;BME280;55509;50.680;17.942;2023-01-28T07:20:26;100456.23;;;-0.10;89.28
68506;BME280;55509;50.680;17.942;2023-01-28T07:23:27;100456.88;;;-0.11;89.48
68506;BME280;55509;50.680;17.942;2023-01-28T07:26:28;100462.75;;;-0.11;89.59
68506;BME280;55509;50.680;17.942;2023-01-28T07:29:30;100467.90;;;-0.13;89.69
68506;BME280;55509;50.680;17.942;2023-01-28T07:32:31;100468.53;;;-0.15;89.73
68506;BME280;55509;50.680;17.942;2023-01-28T07:35:33;100470.38;;;-0.17;89.57
68506;BME280;55509;50.680;17.942;2023-01-28T07:38:35;100469.36;;;-0.17;89.93
68506;BME280;55509;50.680;17.942;2023-01-28T07:41:37;100474.47;;;-0.13;89.96
68506;BME280;55509;50.680;17.942;2023-01-28T07:44:38;100476.31;;;-0.09;90.06
68506;BME280;55509;50.680;17.942;2023-01-28T07:47:40;100480.75;;;-0.04;89.89
68506;BME280;55509;50.680;17.942;2023-01-28T07:50:42;100481.77;;;0.01;90.01
68506;BME280;55509;50.680;17.942;2023-01-28T07:53:43;100485.81;;;0.04;89.71
68506;BME280;55509;50.680;17.942;2023-01-28T07:56:44;100490.77;;;0.02;89.78
68506;BME280;55509;50.680;17.942;2023-01-28T07:59:46;100485.65;;;-0.03;89.93
68506;BME280;55509;50.680;17.942;2023-01-28T08:02:48;100486.94;;;-0.06;89.99
68506;BME280;55509;50.680;17.942;2023-01-28T08:05:50;100487.56;;;-0.08;89.99
68506;BME280;55509;50.680;17.942;2023-01-28T08:08:53;100484.71;;;-0.11;90.26
68506;BME280;55509;50.680;17.942;2023-01-28T08:11:54;100485.31;;;-0.09;90.39
68506;BME280;55509;50.680;17.942;2023-01-28T08:14:56;100486.13;;;-0.04;90.25
68506;BME280;55509;50.680;17.942;2023-01-28T08:17:58;100487.98;;;0.00;90.34
68506;BME280;55509;50.680;17.942;2023-01-28T08:21:00;100490.81;;;0.03;90.12
68506;BME280;55509;50.680;17.942;2023-01-28T08:24:01;100496.70;;;0.03;90.11
68506;BME280;55509;50.680;17.942;2023-01-28T08:27:03;100495.95;;;0.02;90.30
68506;BME280;55509;50.680;17.942;2023-01-28T08:30:05;100493.71;;;0.01;90.37
68506;BME280;55509;50.680;17.942;2023-01-28T08:33:07;100489.55;;;0.01;90.25
68506;BME280;55509;50.680;17.942;2023-01-28T08:36:09;100490.87;;;-0.01;90.21
68506;BME280;55509;50.680;17.942;2023-01-28T08:39:11;100487.53;;;-0.03;90.02
68506;BME280;55509;50.680;17.942;2023-01-28T08:42:12;100485.85;;;-0.01;90.20
68506;BME280;55509;50.680;17.942;2023-01-28T08:45:14;100488.86;;;0.02;90.27
68506;BME280;55509;50.680;17.942;2023-01-28T08:48:16;100488.10;;;0.06;90.23
68506;BME280;55509;50.680;17.942;2023-01-28T08:51:18;100493.88;;;0.07;90.16
68506;BME280;55509;50.680;17.942;2023-01-28T08:54:19;100500.52;;;0.10;90.18
68506;BME280;55509;50.680;17.942;2023-01-28T08:57:21;100496.55;;;0.10;90.37
68506;BME280;55509;50.680;17.942;2023-01-28T09:00:22;100500.11;;;0.14;90.30
68506;BME280;55509;50.680;17.942;2023-01-28T09:03:24;100504.42;;;0.14;90.22
68506;BME280;55509;50.680;17.942;2023-01-28T09:06:25;100510.08;;;0.11;90.04
68506;BME280;55509;50.680;17.942;2023-01-28T09:09:29;100510.56;;;0.10;90.14
68506;BME280;55509;50.680;17.942;2023-01-28T09:12:31;100511.96;;;0.11;90.25
68506;BME280;55509;50.680;17.942;2023-01-28T09:15:32;100512.40;;;0.14;90.33
68506;BME280;55509;50.680;17.942;2023-01-28T09:18:34;100514.38;;;0.17;89.99
68506;BME280;55509;50.680;17.942;2023-01-28T09:21:37;100517.23;;;0.20;90.21
68506;BME280;55509;50.680;17.942;2023-01-28T09:24:38;100514.21;;;0.23;90.23
68506;BME280;55509;50.680;17.942;2023-01-28T09:27:40;100518.25;;;0.26;90.01
68506;BME280;55509;50.680;17.942;2023-01-28T09:30:41;100523.53;;;0.29;90.11
68506;BME280;55509;50.680;17.942;2023-01-28T09:33:43;100525.73;;;0.28;89.97
68506;BME280;55509;50.680;17.942;2023-01-28T09:36:44;100524.79;;;0.24;90.06
68506;BME280;55509;50.680;17.942;2023-01-28T09:39:46;100528.27;;;0.19;90.05
68506;BME280;55509;50.680;17.942;2023-01-28T09:42:58;100527.14;;;0.16;90.36
68506;BME280;55509;50.680;17.942;2023-01-28T09:46:03;100529.11;;;0.12;90.31
68506;BME280;55509;50.680;17.942;2023-01-28T09:52:46;100524.34;;;0.08;90.07
68506;BME280;55509;50.680;17.942;2023-01-28T09:59:12;100524.63;;;0.12;90.23
68506;BME280;55509;50.680;17.942;2023-01-28T10:11:46;100526.20;;;0.20;90.11
68506;BME280;55509;50.680;17.942;2023-01-28T10:18:03;100529.98;;;0.18;89.90
68506;BME280;55509;50.680;17.942;2023-01-28T10:21:14;100527.83;;;0.22;90.03
68506;BME280;55509;50.680;17.942;2023-01-28T10:24:26;100529.35;;;0.27;89.89
68506;BME280;55509;50.680;17.942;2023-01-28T10:27:30;100529.28;;;0.31;89.81
68506;BME280;55509;50.680;17.942;2023-01-28T10:30:32;100527.60;;;0.33;89.19
68506;BME280;55509;50.680;17.942;2023-01-28T10:33:35;100527.52;;;0.29;89.18
68506;BME280;55509;50.680;17.942;2023-01-28T10:36:37;100527.42;;;0.20;88.35
68506;BME280;55509;50.680;17.942;2023-01-28T10:39:39;100530.02;;;0.13;88.87
68506;BME280;55509;50.680;17.942;2023-01-28T10:42:40;100530.56;;;0.08;88.75
68506;BME280;55509;50.680;17.942;2023-01-28T10:45:45;100528.21;;;0.05;89.04
68506;BME280;55509;50.680;17.942;2023-01-28T10:48:54;100529.00;;;0.02;88.95
68506;BME280;55509;50.680;17.942;2023-01-28T10:51:57;100527.84;;;-0.03;89.16
68506;BME280;55509;50.680;17.942;2023-01-28T10:54:59;100529.19;;;-0.04;88.95
68506;BME280;55509;50.680;17.942;2023-01-28T10:58:02;100527.20;;;-0.01;89.18
68506;BME280;55509;50.680;17.942;2023-01-28T11:01:05;100527.77;;;0.01;88.67
68506;BME280;55509;50.680;17.942;2023-01-28T11:04:14;100530.44;;;0.04;89.04
68506;BME280;55509;50.680;17.942;2023-01-28T11:07:17;100524.74;;;0.10;89.06
68506;BME280;55509;50.680;17.942;2023-01-28T11:10:26;100529.84;;;0.13;88.60
68506;BME280;55509;50.680;17.942;2023-01-28T11:13:30;100528.43;;;0.12;88.10
68506;BME280;55509;50.680;17.942;2023-01-28T11:16:33;100527.85;;;0.10;87.75
68506;BME280;55509;50.680;17.942;2023-01-28T11:19:34;100525.51;;;0.07;87.88
68506;BME280;55509;50.680;17.942;2023-01-28T11:22:43;100521.77;;;0.03;88.13
68506;BME280;55509;50.680;17.942;2023-01-28T11:25:45;100521.04;;;0.02;88.30
68506;BME280;55509;50.680;17.942;2023-01-28T11:28:47;100517.72;;;-0.00;88.53
68506;BME280;55509;50.680;17.942;2023-01-28T11:31:49;100518.35;;;-0.02;87.98
68506;BME280;55509;50.680;17.942;2023-01-28T11:34:54;100513.04;;;-0.06;88.13
68506;BME280;55509;50.680;17.942;2023-01-28T11:37:58;100517.31;;;-0.08;88.20
68506;BME280;55509;50.680;17.942;2023-01-28T11:41:00;100516.17;;;-0.06;88.12
68506;BME280;55509;50.680;17.942;2023-01-28T11:44:35;100516.83;;;-0.00;88.13
68506;BME280;55509;50.680;17.942;2023-01-28T11:47:41;100515.94;;;0.04;87.90
68506;BME280;55509;50.680;17.942;2023-01-28T12:00:23;100514.51;;;0.16;88.38
68506;BME280;55509;50.680;17.942;2023-01-28T12:19:21;100522.58;;;-0.11;88.37
68506;BME280;55509;50.680;17.942;2023-01-28T12:22:31;100527.08;;;-0.17;88.39
68506;BME280;55509;50.680;17.942;2023-01-28T12:25:43;100521.86;;;-0.18;88.44
68506;BME280;55509;50.680;17.942;2023-01-28T12:32:11;100512.88;;;-0.12;88.77
68506;BME280;55509;50.680;17.942;2023-01-28T12:35:21;100511.10;;;-0.07;88.91
68506;BME280;55509;50.680;17.942;2023-01-28T12:41:31;100516.67;;;-0.00;89.15
68506;BME280;55509;50.680;17.942;2023-01-28T12:44:40;100520.04;;;0.03;88.87
68506;BME280;55509;50.680;17.942;2023-01-28T12:47:48;100521.32;;;-0.01;88.82
68506;BME280;55509;50.680;17.942;2023-01-28T12:50:52;100516.98;;;-0.07;89.18
68506;BME280;55509;50.680;17.942;2023-01-28T12:53:57;100514.63;;;-0.11;89.41
68506;BME280;55509;50.680;17.942;2023-01-28T12:57:00;100514.92;;;-0.13;89.75
68506;BME280;55509;50.680;17.942;2023-01-28T13:06:37;100522.83;;;-0.09;90.10
68506;BME280;55509;50.680;17.942;2023-01-28T13:09:44;100528.42;;;-0.06;90.16
68506;BME280;55509;50.680;17.942;2023-01-28T13:12:48;100530.59;;;-0.04;90.19
68506;BME280;55509;50.680;17.942;2023-01-28T13:15:50;100530.02;;;-0.05;90.09
68506;BME280;55509;50.680;17.942;2023-01-28T13:18:52;100532.66;;;-0.09;89.80
68506;BME280;55509;50.680;17.942;2023-01-28T13:21:53;100534.63;;;-0.13;90.21
68506;BME280;55509;50.680;17.942;2023-01-28T13:24:55;100530.35;;;-0.18;90.00
68506;BME280;55509;50.680;17.942;2023-01-28T13:28:00;100532.98;;;-0.22;90.49
68506;BME280;55509;50.680;17.942;2023-01-28T13:31:06;100540.52;;;-0.24;90.29
68506;BME280;55509;50.680;17.942;2023-01-28T13:34:24;100535.73;;;-0.23;90.24
68506;BME280;55509;50.680;17.942;2023-01-28T13:40:33;100540.17;;;-0.13;90.48
68506;BME280;55509;50.680;17.942;2023-01-28T13:43:37;100540.08;;;-0.10;90.28
68506;BME280;55509;50.680;17.942;2023-01-28T13:46:39;100540.57;;;-0.11;90.20
68506;BME280;55509;50.680;17.942;2023-01-28T13:49:42;100537.23;;;-0.13;90.11
68506;BME280;55509;50.680;17.942;2023-01-28T13:52:46;100543.34;;;-0.17;90.13
68506;BME280;55509;50.680;17.942;2023-01-28T13:55:51;100548.55;;;-0.22;90.03
68506;BME280;55509;50.680;17.942;2023-01-28T14:05:27;100549.66;;;-0.26;90.03
68506;BME280;55509;50.680;17.942;2023-01-28T14:17:53;100564.77;;;-0.29;90.75
68506;BME280;55509;50.680;17.942;2023-01-28T14:20:55;100563.17;;;-0.30;90.66
68506;BME280;55509;50.680;17.942;2023-01-28T14:24:00;100564.01;;;-0.31;90.75
68506;BME280;55509;50.680;17.942;2023-01-28T14:27:16;100569.69;;;-0.32;90.73
68506;BME280;55509;50.680;17.942;2023-01-28T14:30:21;100569.44;;;-0.35;91.03
68506;BME280;55509;50.680;17.942;2023-01-28T14:33:30;100567.55;;;-0.40;90.88
68506;BME280;55509;50.680;17.942;2023-01-28T14:36:35;100566.56;;;-0.44;90.82
68506;BME280;55509;50.680;17.942;2023-01-28T14:39:40;100572.32;;;-0.48;91.06
68506;BME280;55509;50.680;17.942;2023-01-28T14:42:44;100570.88;;;-0.49;91.35
68506;BME280;55509;50.680;17.942;2023-01-28T14:49:08;100569.17;;;-0.49;91.24
68506;BME280;55509;50.680;17.942;2023-01-28T14:55:39;100569.98;;;-0.50;91.39
68506;BME280;55509;50.680;17.942;2023-01-28T14:58:44;100580.80;;;-0.53;91.21
68506;BME280;55509;50.680;17.942;2023-01-28T15:01:47;100581.23;;;-0.56;91.25
68506;BME280;55509;50.680;17.942;2023-01-28T15:04:49;100580.75;;;-0.60;91.54
68506;BME280;55509;50.680;17.942;2023-01-28T15:07:51;100586.20;;;-0.63;91.47
68506;BME280;55509;50.680;17.942;2023-01-28T15:10:53;100591.64;;;-0.65;91.84
68506;BME280;55509;50.680;17.942;2023-01-28T15:13:55;100588.71;;;-0.70;91.68
68506;BME280;55509;50.680;17.942;2023-01-28T15:16:58;100590.34;;;-0.74;91.67
68506;BME280;55509;50.680;17.942;2023-01-28T15:20:00;100597.20;;;-0.75;91.69
68506;BME280;55509;50.680;17.942;2023-01-28T15:23:01;100598.95;;;-0.74;91.72
68506;BME280;55509;50.680;17.942;2023-01-28T15:26:07;100597.05;;;-0.74;91.53
68506;BME280;55509;50.680;17.942;2023-01-28T15:32:44;100607.57;;;-0.81;91.42
68506;BME280;55509;50.680;17.942;2023-01-28T15:35:46;100605.69;;;-0.85;91.94
68506;BME280;55509;50.680;17.942;2023-01-28T15:38:48;100611.19;;;-0.86;92.15
68506;BME280;55509;50.680;17.942;2023-01-28T15:41:51;100618.12;;;-0.85;91.89
68506;BME280;55509;50.680;17.942;2023-01-28T15:44:53;100614.11;;;-0.81;92.39
68506;BME280;55509;50.680;17.942;2023-01-28T15:48:02;100613.42;;;-0.81;92.09
68506;BME280;55509;50.680;17.942;2023-01-28T15:51:05;100619.88;;;-0.84;92.09
68506;BME280;55509;50.680;17.942;2023-01-28T15:54:08;100623.88;;;-0.89;92.14
68506;BME280;55509;50.680;17.942;2023-01-28T15:57:20;100634.40;;;-0.94;92.23
68506;BME280;55509;50.680;17.942;2023-01-28T16:00:22;100636.29;;;-0.99;91.96
68506;BME280;55509;50.680;17.942;2023-01-28T16:03:25;100636.84;;;-1.03;92.21
68506;BME280;55509;50.680;17.942;2023-01-28T16:06:33;100645.12;;;-1.04;92.17
68506;BME280;55509;50.680;17.942;2023-01-28T16:09:36;100651.39;;;-1.02;92.17
68506;BME280;55509;50.680;17.942;2023-01-28T16:12:37;100654.20;;;-1.01;92.35
68506;BME280;55509;50.680;17.942;2023-01-28T16:15:44;100657.27;;;-1.02;92.64
68506;BME280;55509;50.680;17.942;2023-01-28T16:18:46;100662.20;;;-1.05;92.42
68506;BME280;55509;50.680;17.942;2023-01-28T16:21:51;100657.00;;;-1.10;92.56
68506;BME280;55509;50.680;17.942;2023-01-28T16:24:53;100658.05;;;-1.14;92.38
68506;BME280;55509;50.680;17.942;2023-01-28T16:27:55;100659.11;;;-1.19;92.34
68506;BME280;55509;50.680;17.942;2023-01-28T16:30:57;100659.23;;;-1.20;92.41
68506;BME280;55509;50.680;17.942;2023-01-28T16:33:59;100656.11;;;-1.20;92.31
68506;BME280;55509;50.680;17.942;2023-01-28T16:37:01;100653.70;;;-1.21;92.34
68506;BME280;55509;50.680;17.942;2023-01-28T16:40:02;100651.30;;;-1.21;92.25
68506;BME280;55509;50.680;17.942;2023-01-28T16:43:07;100660.71;;;-1.22;92.16
68506;BME280;55509;50.680;17.942;2023-01-28T16:46:10;100664.71;;;-1.26;92.37
68506;BME280;55509;50.680;17.942;2023-01-28T16:49:12;100666.46;;;-1.30;92.34
68506;BME280;55509;50.680;17.942;2023-01-28T16:52:14;100663.27;;;-1.33;92.30
68506;BME280;55509;50.680;17.942;2023-01-28T16:55:16;100668.75;;;-1.34;92.22
68506;BME280;55509;50.680;17.942;2023-01-28T16:58:21;100675.13;;;-1.35;92.16
68506;BME280;55509;50.680;17.942;2023-01-28T17:01:24;100673.05;;;-1.35;92.37
68506;BME280;55509;50.680;17.942;2023-01-28T17:04:26;100672.65;;;-1.36;92.31
68506;BME280;55509;50.680;17.942;2023-01-28T17:07:27;100673.94;;;-1.39;92.30
68506;BME280;55509;50.680;17.942;2023-01-28T17:10:29;100680.67;;;-1.43;92.39
68506;BME280;55509;50.680;17.942;2023-01-28T17:13:30;100681.62;;;-1.46;92.77
68506;BME280;55509;50.680;17.942;2023-01-28T17:16:32;100684.91;;;-1.50;92.60
68506;BME280;55509;50.680;17.942;2023-01-28T17:19:33;100690.30;;;-1.53;92.33
68506;BME280;55509;50.680;17.942;2023-01-28T17:22:35;100690.46;;;-1.54;92.29
68506;BME280;55509;50.680;17.942;2023-01-28T17:25:37;100690.54;;;-1.51;92.36
68506;BME280;55509;50.680;17.942;2023-01-28T17:28:42;100692.20;;;-1.49;92.32
68506;BME280;55509;50.680;17.942;2023-01-28T17:31:43;100693.05;;;-1.49;91.91
68506;BME280;55509;50.680;17.942;2023-01-28T17:34:48;100691.86;;;-1.53;91.77
68506;BME280;55509;50.680;17.942;2023-01-28T17:37:53;100692.63;;;-1.56;91.81